sensor_id;sensor_type;location;lat;lon;timestamp;P1;durP1;ratioP1;P2;durP2;ratioP2
43670;SDS011;29267;50.906;7.248;2022-08-25T00:01:35;9.32;;;7.85;;
43670;SDS011;29267;50.906;7.248;2022-08-25T00:04:04;8.10;;;7.30;;
43670;SDS011;29267;50.906;7.248;2022-08-25T00:06:34;7.53;;;6.65;;
43670;SDS011;29267;50.906;7.248;2022-08-25T00:09:00;7.07;;;6.35;;
43670;SDS011;29267;50.906;7.248;2022-08-25T00:11:27;7.72;;;6.93;;
43670;SDS011;29267;50.906;7.248;2022-08-25T00:13:57;7.05;;;6.25;;
43670;SDS011;29267;50.906;7.248;2022-08-25T00:16:25;8.93;;;7.85;;
43670;SDS011;29267;50.906;7.248;2022-08-25T00:18:54;8.73;;;6.95;;
43670;SDS011;29267;50.906;7.248;2022-08-25T00:21:23;8.07;;;6.95;;
43670;SDS011;29267;50.906;7.248;2022-08-25T00:23:49;7.10;;;6.40;;
43670;SDS011;29267;50.906;7.248;2022-08-25T00:26:15;8.00;;;7.20;;
43670;SDS011;29267;50.906;7.248;2022-08-25T00:28:42;8.60;;;7.35;;
43670;SDS011;29267;50.906;7.248;2022-08-25T00:31:14;10.00;;;7.13;;
43670;SDS011;29267;50.906;7.248;2022-08-25T00:33:44;7.57;;;6.30;;
43670;SDS011;29267;50.906;7.248;2022-08-25T00:36:11;7.85;;;6.63;;
43670;SDS011;29267;50.906;7.248;2022-08-25T00:38:39;9.27;;;7.32;;
43670;SDS011;29267;50.906;7.248;2022-08-25T00:41:06;7.80;;;7.00;;
43670;SDS011;29267;50.906;7.248;2022-08-25T00:46:13;7.65;;;6.95;;
43670;SDS011;29267;50.906;7.248;2022-08-25T00:48:43;7.40;;;6.68;;
43670;SDS011;29267;50.906;7.248;2022-08-25T00:51:11;7.45;;;6.75;;
43670;SDS011;29267;50.906;7.248;2022-08-25T00:53:40;7.32;;;6.63;;
43670;SDS011;29267;50.906;7.248;2022-08-25T00:56:07;7.65;;;6.95;;
43670;SDS011;29267;50.906;7.248;2022-08-25T00:58:34;8.95;;;7.35;;
43670;SDS011;29267;50.906;7.248;2022-08-25T01:01:01;7.68;;;6.97;;
43670;SDS011;29267;50.906;7.248;2022-08-25T01:03:27;6.90;;;6.30;;
43670;SDS011;29267;50.906;7.248;2022-08-25T01:05:58;8.45;;;7.00;;
43670;SDS011;29267;50.906;7.248;2022-08-25T01:08:26;7.10;;;6.40;;
43670;SDS011;29267;50.906;7.248;2022-08-25T01:10:54;7.95;;;7.25;;
43670;SDS011;29267;50.906;7.248;2022-08-25T01:13:27;7.97;;;7.07;;
43670;SDS011;29267;50.906;7.248;2022-08-25T01:15:58;7.57;;;6.85;;
43670;SDS011;29267;50.906;7.248;2022-08-25T01:18:24;6.82;;;6.22;;
43670;SDS011;29267;50.906;7.248;2022-08-25T01:20:52;9.15;;;6.72;;
43670;SDS011;29267;50.906;7.248;2022-08-25T01:23:19;8.45;;;6.60;;
43670;SDS011;29267;50.906;7.248;2022-08-25T01:28:32;7.65;;;6.75;;
43670;SDS011;29267;50.906;7.248;2022-08-25T01:30:59;7.22;;;6.38;;
43670;SDS011;29267;50.906;7.248;2022-08-25T01:33:26;7.47;;;6.78;;
43670;SDS011;29267;50.906;7.248;2022-08-25T01:35:52;7.60;;;6.90;;
43670;SDS011;29267;50.906;7.248;2022-08-25T01:38:18;8.40;;;7.32;;
43670;SDS011;29267;50.906;7.248;2022-08-25T01:40:45;7.88;;;7.07;;
43670;SDS011;29267;50.906;7.248;2022-08-25T01:45:42;9.15;;;7.22;;
43670;SDS011;29267;50.906;7.248;2022-08-25T01:48:11;8.65;;;6.25;;
43670;SDS011;29267;50.906;7.248;2022-08-25T01:50:39;7.15;;;6.28;;
43670;SDS011;29267;50.906;7.248;2022-08-25T01:53:06;7.70;;;7.00;;
43670;SDS011;29267;50.906;7.248;2022-08-25T01:55:52;15.05;;;9.02;;
43670;SDS011;29267;50.906;7.248;2022-08-25T01:58:24;8.57;;;7.32;;
43670;SDS011;29267;50.906;7.248;2022-08-25T02:00:52;7.68;;;6.97;;
43670;SDS011;29267;50.906;7.248;2022-08-25T02:03:20;7.53;;;6.78;;
43670;SDS011;29267;50.906;7.248;2022-08-25T02:05:46;8.50;;;7.55;;
43670;SDS011;29267;50.906;7.248;2022-08-25T02:08:12;7.65;;;6.95;;
43670;SDS011;29267;50.906;7.248;2022-08-25T02:10:39;9.35;;;7.30;;
43670;SDS011;29267;50.906;7.248;2022-08-25T02:13:06;7.97;;;7.20;;
43670;SDS011;29267;50.906;7.248;2022-08-25T02:15:33;7.90;;;6.97;;
43670;SDS011;29267;50.906;7.248;2022-08-25T02:17:59;8.02;;;7.22;;
43670;SDS011;29267;50.906;7.248;2022-08-25T02:20:25;7.80;;;7.10;;
43670;SDS011;29267;50.906;7.248;2022-08-25T02:22:51;8.77;;;7.82;;
43670;SDS011;29267;50.906;7.248;2022-08-25T02:25:18;7.50;;;6.80;;
43670;SDS011;29267;50.906;7.248;2022-08-25T02:27:44;7.82;;;7.03;;
43670;SDS011;29267;50.906;7.248;2022-08-25T02:30:11;9.15;;;6.75;;
43670;SDS011;29267;50.906;7.248;2022-08-25T02:32:38;7.40;;;6.65;;
43670;SDS011;29267;50.906;7.248;2022-08-25T02:35:04;9.35;;;7.18;;
43670;SDS011;29267;50.906;7.248;2022-08-25T02:37:31;6.90;;;6.25;;
43670;SDS011;29267;50.906;7.248;2022-08-25T02:39:57;6.60;;;6.00;;
43670;SDS011;29267;50.906;7.248;2022-08-25T02:42:24;7.45;;;6.75;;
43670;SDS011;29267;50.906;7.248;2022-08-25T02:44:50;7.50;;;6.70;;
43670;SDS011;29267;50.906;7.248;2022-08-25T02:47:16;8.82;;;6.65;;
43670;SDS011;29267;50.906;7.248;2022-08-25T02:49:42;8.80;;;7.07;;
43670;SDS011;29267;50.906;7.248;2022-08-25T02:52:08;7.35;;;6.65;;
43670;SDS011;29267;50.906;7.248;2022-08-25T02:54:35;7.05;;;5.97;;
43670;SDS011;29267;50.906;7.248;2022-08-25T02:57:01;6.25;;;5.75;;
43670;SDS011;29267;50.906;7.248;2022-08-25T02:59:27;12.23;;;5.78;;
43670;SDS011;29267;50.906;7.248;2022-08-25T03:01:53;6.93;;;5.63;;
43670;SDS011;29267;50.906;7.248;2022-08-25T03:04:19;6.90;;;6.00;;
43670;SDS011;29267;50.906;7.248;2022-08-25T03:06:44;7.97;;;6.00;;
43670;SDS011;29267;50.906;7.248;2022-08-25T03:09:10;9.52;;;5.95;;
43670;SDS011;29267;50.906;7.248;2022-08-25T03:11:36;6.30;;;5.70;;
43670;SDS011;29267;50.906;7.248;2022-08-25T03:14:05;5.85;;;5.20;;
43670;SDS011;29267;50.906;7.248;2022-08-25T03:16:33;8.32;;;5.90;;
43670;SDS011;29267;50.906;7.248;2022-08-25T03:18:59;6.25;;;5.07;;
43670;SDS011;29267;50.906;7.248;2022-08-25T03:21:25;6.32;;;5.72;;
43670;SDS011;29267;50.906;7.248;2022-08-25T03:23:53;6.30;;;5.70;;
43670;SDS011;29267;50.906;7.248;2022-08-25T03:26:19;8.48;;;5.38;;
43670;SDS011;29267;50.906;7.248;2022-08-25T03:29:03;6.05;;;5.40;;
43670;SDS011;29267;50.906;7.248;2022-08-25T03:31:30;5.55;;;4.93;;
43670;SDS011;29267;50.906;7.248;2022-08-25T03:33:57;7.95;;;5.72;;
43670;SDS011;29267;50.906;7.248;2022-08-25T03:36:24;5.45;;;4.95;;
43670;SDS011;29267;50.906;7.248;2022-08-25T03:38:50;6.80;;;5.57;;
43670;SDS011;29267;50.906;7.248;2022-08-25T03:41:21;5.85;;;5.25;;
43670;SDS011;29267;50.906;7.248;2022-08-25T03:46:19;6.13;;;5.30;;
43670;SDS011;29267;50.906;7.248;2022-08-25T03:48:48;7.13;;;5.55;;
43670;SDS011;29267;50.906;7.248;2022-08-25T03:51:19;6.35;;;5.03;;
43670;SDS011;29267;50.906;7.248;2022-08-25T03:53:45;6.35;;;5.75;;
43670;SDS011;29267;50.906;7.248;2022-08-25T03:56:11;8.23;;;5.30;;
43670;SDS011;29267;50.906;7.248;2022-08-25T03:58:37;7.00;;;5.45;;
43670;SDS011;29267;50.906;7.248;2022-08-25T04:01:03;5.63;;;5.07;;
43670;SDS011;29267;50.906;7.248;2022-08-25T04:03:28;6.75;;;5.30;;
43670;SDS011;29267;50.906;7.248;2022-08-25T04:05:54;10.00;;;5.22;;
43670;SDS011;29267;50.906;7.248;2022-08-25T04:08:24;5.57;;;5.03;;
43670;SDS011;29267;50.906;7.248;2022-08-25T04:10:50;6.68;;;5.35;;
43670;SDS011;29267;50.906;7.248;2022-08-25T04:13:16;8.35;;;4.93;;
43670;SDS011;29267;50.906;7.248;2022-08-25T04:15:42;5.63;;;5.00;;
43670;SDS011;29267;50.906;7.248;2022-08-25T04:18:08;8.40;;;5.55;;
43670;SDS011;29267;50.906;7.248;2022-08-25T04:20:36;8.07;;;5.47;;
43670;SDS011;29267;50.906;7.248;2022-08-25T04:23:02;5.80;;;5.10;;
43670;SDS011;29267;50.906;7.248;2022-08-25T04:25:28;6.60;;;5.28;;
43670;SDS011;29267;50.906;7.248;2022-08-25T04:27:54;5.72;;;4.85;;
43670;SDS011;29267;50.906;7.248;2022-08-25T04:30:20;6.13;;;5.10;;
43670;SDS011;29267;50.906;7.248;2022-08-25T04:32:46;8.15;;;6.00;;
43670;SDS011;29267;50.906;7.248;2022-08-25T04:35:13;6.38;;;4.82;;
43670;SDS011;29267;50.906;7.248;2022-08-25T04:37:39;6.45;;;4.70;;
43670;SDS011;29267;50.906;7.248;2022-08-25T04:40:05;5.00;;;4.50;;
43670;SDS011;29267;50.906;7.248;2022-08-25T04:42:32;5.78;;;5.18;;
43670;SDS011;29267;50.906;7.248;2022-08-25T04:44:58;9.70;;;6.15;;
43670;SDS011;29267;50.906;7.248;2022-08-25T04:47:26;5.85;;;4.82;;
43670;SDS011;29267;50.906;7.248;2022-08-25T04:49:52;6.07;;;5.15;;
43670;SDS011;29267;50.906;7.248;2022-08-25T04:52:18;8.98;;;5.00;;
43670;SDS011;29267;50.906;7.248;2022-08-25T04:54:45;5.32;;;4.57;;
43670;SDS011;29267;50.906;7.248;2022-08-25T04:57:11;7.40;;;5.47;;
43670;SDS011;29267;50.906;7.248;2022-08-25T04:59:37;8.02;;;5.15;;
43670;SDS011;29267;50.906;7.248;2022-08-25T05:02:03;7.45;;;5.68;;
43670;SDS011;29267;50.906;7.248;2022-08-25T05:04:31;16.83;;;7.13;;
43670;SDS011;29267;50.906;7.248;2022-08-25T05:06:59;5.80;;;4.97;;
43670;SDS011;29267;50.906;7.248;2022-08-25T05:09:26;5.75;;;4.78;;
43670;SDS011;29267;50.906;7.248;2022-08-25T05:11:52;6.05;;;5.13;;
43670;SDS011;29267;50.906;7.248;2022-08-25T05:14:18;9.68;;;6.03;;
43670;SDS011;29267;50.906;7.248;2022-08-25T05:16:46;5.82;;;5.22;;
43670;SDS011;29267;50.906;7.248;2022-08-25T05:19:13;10.20;;;5.63;;
43670;SDS011;29267;50.906;7.248;2022-08-25T05:21:39;8.75;;;4.97;;
43670;SDS011;29267;50.906;7.248;2022-08-25T05:24:05;7.20;;;5.15;;
43670;SDS011;29267;50.906;7.248;2022-08-25T05:26:32;9.88;;;5.18;;
43670;SDS011;29267;50.906;7.248;2022-08-25T05:28:59;6.80;;;5.82;;
43670;SDS011;29267;50.906;7.248;2022-08-25T05:31:28;6.80;;;5.72;;
43670;SDS011;29267;50.906;7.248;2022-08-25T05:33:55;6.60;;;5.75;;
43670;SDS011;29267;50.906;7.248;2022-08-25T05:36:21;12.35;;;5.20;;
43670;SDS011;29267;50.906;7.248;2022-08-25T05:38:48;7.32;;;5.55;;
43670;SDS011;29267;50.906;7.248;2022-08-25T05:41:16;6.03;;;5.43;;
43670;SDS011;29267;50.906;7.248;2022-08-25T05:43:45;5.35;;;4.68;;
43670;SDS011;29267;50.906;7.248;2022-08-25T05:46:13;6.22;;;5.53;;
43670;SDS011;29267;50.906;7.248;2022-08-25T05:48:39;6.38;;;5.72;;
43670;SDS011;29267;50.906;7.248;2022-08-25T05:51:06;6.68;;;6.03;;
43670;SDS011;29267;50.906;7.248;2022-08-25T05:53:37;6.13;;;5.30;;
43670;SDS011;29267;50.906;7.248;2022-08-25T05:56:05;6.13;;;5.53;;
43670;SDS011;29267;50.906;7.248;2022-08-25T05:58:31;6.80;;;5.45;;
43670;SDS011;29267;50.906;7.248;2022-08-25T06:00:57;6.28;;;5.43;;
43670;SDS011;29267;50.906;7.248;2022-08-25T06:03:47;7.05;;;6.32;;
43670;SDS011;29267;50.906;7.248;2022-08-25T06:06:16;7.05;;;5.75;;
43670;SDS011;29267;50.906;7.248;2022-08-25T06:08:42;7.68;;;6.75;;
43670;SDS011;29267;50.906;7.248;2022-08-25T06:11:09;9.73;;;6.28;;
43670;SDS011;29267;50.906;7.248;2022-08-25T06:13:36;8.05;;;6.45;;
43670;SDS011;29267;50.906;7.248;2022-08-25T06:16:03;7.43;;;6.20;;
43670;SDS011;29267;50.906;7.248;2022-08-25T06:18:29;6.85;;;6.25;;
43670;SDS011;29267;50.906;7.248;2022-08-25T06:20:55;9.00;;;6.90;;
43670;SDS011;29267;50.906;7.248;2022-08-25T06:23:20;8.82;;;7.30;;
43670;SDS011;29267;50.906;7.248;2022-08-25T06:25:50;8.75;;;6.43;;
43670;SDS011;29267;50.906;7.248;2022-08-25T06:28:17;8.85;;;7.68;;
43670;SDS011;29267;50.906;7.248;2022-08-25T06:30:44;9.25;;;7.47;;
43670;SDS011;29267;50.906;7.248;2022-08-25T06:33:10;7.85;;;7.07;;
43670;SDS011;29267;50.906;7.248;2022-08-25T06:35:36;9.30;;;7.82;;
43670;SDS011;29267;50.906;7.248;2022-08-25T06:38:04;6.82;;;6.03;;
43670;SDS011;29267;50.906;7.248;2022-08-25T06:40:30;8.25;;;7.13;;
43670;SDS011;29267;50.906;7.248;2022-08-25T06:42:56;8.45;;;7.55;;
43670;SDS011;29267;50.906;7.248;2022-08-25T06:45:22;8.02;;;7.22;;
43670;SDS011;29267;50.906;7.248;2022-08-25T06:47:47;7.88;;;7.07;;
43670;SDS011;29267;50.906;7.248;2022-08-25T06:50:13;8.80;;;7.10;;
43670;SDS011;29267;50.906;7.248;2022-08-25T06:52:39;11.75;;;8.43;;
43670;SDS011;29267;50.906;7.248;2022-08-25T06:55:05;8.18;;;7.35;;
43670;SDS011;29267;50.906;7.248;2022-08-25T06:57:31;9.30;;;8.05;;
43670;SDS011;29267;50.906;7.248;2022-08-25T06:59:59;7.43;;;6.65;;
43670;SDS011;29267;50.906;7.248;2022-08-25T07:02:26;8.90;;;7.40;;
43670;SDS011;29267;50.906;7.248;2022-08-25T07:04:52;8.48;;;7.30;;
43670;SDS011;29267;50.906;7.248;2022-08-25T07:07:18;8.80;;;7.85;;
43670;SDS011;29267;50.906;7.248;2022-08-25T07:09:44;8.43;;;7.63;;
43670;SDS011;29267;50.906;7.248;2022-08-25T07:12:10;10.05;;;8.88;;
43670;SDS011;29267;50.906;7.248;2022-08-25T07:14:36;9.85;;;8.85;;
43670;SDS011;29267;50.906;7.248;2022-08-25T07:17:02;8.27;;;7.25;;
43670;SDS011;29267;50.906;7.248;2022-08-25T07:19:28;8.98;;;7.97;;
43670;SDS011;29267;50.906;7.248;2022-08-25T07:21:54;9.27;;;8.18;;
43670;SDS011;29267;50.906;7.248;2022-08-25T07:24:20;11.93;;;9.23;;
43670;SDS011;29267;50.906;7.248;2022-08-25T07:26:46;9.55;;;8.57;;
43670;SDS011;29267;50.906;7.248;2022-08-25T07:29:14;10.73;;;9.43;;
43670;SDS011;29267;50.906;7.248;2022-08-25T07:31:45;10.68;;;8.52;;
43670;SDS011;29267;50.906;7.248;2022-08-25T07:34:11;10.05;;;8.65;;
43670;SDS011;29267;50.906;7.248;2022-08-25T07:36:55;9.82;;;7.72;;
43670;SDS011;29267;50.906;7.248;2022-08-25T07:39:22;8.80;;;7.90;;
43670;SDS011;29267;50.906;7.248;2022-08-25T07:41:49;8.75;;;7.63;;
43670;SDS011;29267;50.906;7.248;2022-08-25T07:44:15;11.32;;;8.93;;
43670;SDS011;29267;50.906;7.248;2022-08-25T07:46:41;10.38;;;8.05;;
43670;SDS011;29267;50.906;7.248;2022-08-25T07:49:07;10.57;;;9.50;;
43670;SDS011;29267;50.906;7.248;2022-08-25T07:51:33;10.45;;;9.25;;
43670;SDS011;29267;50.906;7.248;2022-08-25T07:53:59;10.95;;;9.05;;
43670;SDS011;29267;50.906;7.248;2022-08-25T07:56:25;9.80;;;7.78;;
43670;SDS011;29267;50.906;7.248;2022-08-25T07:58:51;9.07;;;8.18;;
43670;SDS011;29267;50.906;7.248;2022-08-25T08:01:18;9.60;;;8.63;;
43670;SDS011;29267;50.906;7.248;2022-08-25T08:03:46;11.27;;;9.82;;
43670;SDS011;29267;50.906;7.248;2022-08-25T08:06:13;13.50;;;8.60;;
43670;SDS011;29267;50.906;7.248;2022-08-25T08:08:42;9.63;;;8.63;;
43670;SDS011;29267;50.906;7.248;2022-08-25T08:16:10;12.82;;;9.88;;
43670;SDS011;29267;50.906;7.248;2022-08-25T08:18:38;9.80;;;8.90;;
43670;SDS011;29267;50.906;7.248;2022-08-25T08:21:04;11.60;;;9.52;;
43670;SDS011;29267;50.906;7.248;2022-08-25T08:23:39;9.57;;;8.52;;
43670;SDS011;29267;50.906;7.248;2022-08-25T08:26:05;11.25;;;10.02;;
43670;SDS011;29267;50.906;7.248;2022-08-25T08:28:31;9.38;;;8.45;;
43670;SDS011;29267;50.906;7.248;2022-08-25T08:30:56;10.05;;;9.05;;
43670;SDS011;29267;50.906;7.248;2022-08-25T08:33:22;9.43;;;8.45;;
43670;SDS011;29267;50.906;7.248;2022-08-25T08:36:05;11.18;;;8.23;;
43670;SDS011;29267;50.906;7.248;2022-08-25T08:38:34;11.38;;;9.20;;
43670;SDS011;29267;50.906;7.248;2022-08-25T08:47:17;10.10;;;8.80;;
43670;SDS011;29267;50.906;7.248;2022-08-25T08:50:05;10.07;;;9.05;;
43670;SDS011;29267;50.906;7.248;2022-08-25T08:55:31;9.45;;;8.38;;
43670;SDS011;29267;50.906;7.248;2022-08-25T08:58:13;10.18;;;8.55;;
43670;SDS011;29267;50.906;7.248;2022-08-25T09:00:55;9.32;;;8.35;;
43670;SDS011;29267;50.906;7.248;2022-08-25T09:06:27;10.15;;;8.88;;
43670;SDS011;29267;50.906;7.248;2022-08-25T09:08:57;9.88;;;8.88;;
43670;SDS011;29267;50.906;7.248;2022-08-25T09:17:05;10.50;;;8.73;;
43670;SDS011;29267;50.906;7.248;2022-08-25T09:20:04;10.65;;;9.32;;
43670;SDS011;29267;50.906;7.248;2022-08-25T09:33:29;10.57;;;8.60;;
43670;SDS011;29267;50.906;7.248;2022-08-25T09:35:57;10.50;;;9.40;;
43670;SDS011;29267;50.906;7.248;2022-08-25T09:38:24;11.10;;;9.32;;
43670;SDS011;29267;50.906;7.248;2022-08-25T09:40:55;8.50;;;7.57;;
43670;SDS011;29267;50.906;7.248;2022-08-25T09:48:48;8.82;;;7.68;;
43670;SDS011;29267;50.906;7.248;2022-08-25T09:51:28;10.43;;;8.27;;
43670;SDS011;29267;50.906;7.248;2022-08-25T10:04:28;9.85;;;8.85;;
43670;SDS011;29267;50.906;7.248;2022-08-25T10:06:56;11.73;;;8.45;;
43670;SDS011;29267;50.906;7.248;2022-08-25T10:09:34;9.93;;;8.85;;
43670;SDS011;29267;50.906;7.248;2022-08-25T10:12:16;9.15;;;8.25;;
43670;SDS011;29267;50.906;7.248;2022-08-25T10:14:49;8.60;;;7.68;;
43670;SDS011;29267;50.906;7.248;2022-08-25T10:17:31;8.77;;;7.90;;
43670;SDS011;29267;50.906;7.248;2022-08-25T10:22:36;10.02;;;8.80;;
43670;SDS011;29267;50.906;7.248;2022-08-25T10:25:03;10.13;;;8.20;;
43670;SDS011;29267;50.906;7.248;2022-08-25T10:30:13;9.10;;;8.20;;
43670;SDS011;29267;50.906;7.248;2022-08-25T10:32:59;12.38;;;9.95;;
43670;SDS011;29267;50.906;7.248;2022-08-25T10:38:57;9.50;;;8.50;;
43670;SDS011;29267;50.906;7.248;2022-08-25T10:49:46;9.15;;;8.05;;
43670;SDS011;29267;50.906;7.248;2022-08-25T10:52:18;9.27;;;8.20;;
43670;SDS011;29267;50.906;7.248;2022-08-25T10:55:05;8.35;;;7.45;;
43670;SDS011;29267;50.906;7.248;2022-08-25T10:57:57;10.32;;;8.02;;
43670;SDS011;29267;50.906;7.248;2022-08-25T11:00:37;9.25;;;8.23;;
43670;SDS011;29267;50.906;7.248;2022-08-25T11:06:00;9.48;;;7.88;;
43670;SDS011;29267;50.906;7.248;2022-08-25T11:08:31;9.73;;;8.32;;
43670;SDS011;29267;50.906;7.248;2022-08-25T11:13:31;9.52;;;7.85;;
43670;SDS011;29267;50.906;7.248;2022-08-25T11:16:27;9.77;;;8.77;;
43670;SDS011;29267;50.906;7.248;2022-08-25T11:21:43;9.52;;;8.23;;
43670;SDS011;29267;50.906;7.248;2022-08-25T11:27:03;11.27;;;7.47;;
43670;SDS011;29267;50.906;7.248;2022-08-25T11:29:34;9.23;;;7.93;;
43670;SDS011;29267;50.906;7.248;2022-08-25T11:32:02;9.90;;;7.78;;
43670;SDS011;29267;50.906;7.248;2022-08-25T11:34:32;11.05;;;8.52;;
43670;SDS011;29267;50.906;7.248;2022-08-25T11:37:23;12.23;;;8.80;;
43670;SDS011;29267;50.906;7.248;2022-08-25T11:51:01;9.50;;;8.13;;
43670;SDS011;29267;50.906;7.248;2022-08-25T11:53:36;12.82;;;8.32;;
43670;SDS011;29267;50.906;7.248;2022-08-25T11:56:25;8.52;;;7.63;;
43670;SDS011;29267;50.906;7.248;2022-08-25T11:58:57;12.50;;;8.43;;
43670;SDS011;29267;50.906;7.248;2022-08-25T12:04:30;11.43;;;9.00;;
43670;SDS011;29267;50.906;7.248;2022-08-25T12:07:20;13.75;;;8.75;;
43670;SDS011;29267;50.906;7.248;2022-08-25T12:12:31;12.20;;;9.32;;
43670;SDS011;29267;50.906;7.248;2022-08-25T12:15:20;11.73;;;8.73;;
43670;SDS011;29267;50.906;7.248;2022-08-25T12:18:12;10.10;;;8.90;;
43670;SDS011;29267;50.906;7.248;2022-08-25T12:23:40;14.38;;;8.90;;
43670;SDS011;29267;50.906;7.248;2022-08-25T12:34:42;14.52;;;8.80;;
43670;SDS011;29267;50.906;7.248;2022-08-25T12:37:30;8.98;;;8.07;;
43670;SDS011;29267;50.906;7.248;2022-08-25T12:39:58;9.07;;;7.90;;
43670;SDS011;29267;50.906;7.248;2022-08-25T12:42:36;9.30;;;7.88;;
43670;SDS011;29267;50.906;7.248;2022-08-25T12:47:38;10.32;;;8.00;;
43670;SDS011;29267;50.906;7.248;2022-08-25T13:15:27;8.73;;;7.85;;
43670;SDS011;29267;50.906;7.248;2022-08-25T13:18:16;9.63;;;8.55;;
43670;SDS011;29267;50.906;7.248;2022-08-25T13:23:42;9.23;;;8.25;;
43670;SDS011;29267;50.906;7.248;2022-08-25T13:26:11;9.32;;;8.13;;
43670;SDS011;29267;50.906;7.248;2022-08-25T13:28:40;9.02;;;8.02;;
43670;SDS011;29267;50.906;7.248;2022-08-25T13:33:33;9.18;;;8.13;;
43670;SDS011;29267;50.906;7.248;2022-08-25T13:36:02;9.18;;;8.05;;
43670;SDS011;29267;50.906;7.248;2022-08-25T13:38:47;9.20;;;7.50;;
43670;SDS011;29267;50.906;7.248;2022-08-25T13:41:22;9.27;;;8.32;;
43670;SDS011;29267;50.906;7.248;2022-08-25T13:43:49;12.05;;;9.02;;
43670;SDS011;29267;50.906;7.248;2022-08-25T13:46:18;8.48;;;7.60;;
43670;SDS011;29267;50.906;7.248;2022-08-25T13:48:46;9.65;;;7.50;;
43670;SDS011;29267;50.906;7.248;2022-08-25T13:51:22;9.30;;;7.72;;
43670;SDS011;29267;50.906;7.248;2022-08-25T13:54:00;9.60;;;8.20;;
43670;SDS011;29267;50.906;7.248;2022-08-25T13:56:31;11.80;;;8.38;;
43670;SDS011;29267;50.906;7.248;2022-08-25T13:59:00;8.10;;;7.30;;
43670;SDS011;29267;50.906;7.248;2022-08-25T14:01:29;8.57;;;7.57;;
43670;SDS011;29267;50.906;7.248;2022-08-25T14:06:48;9.85;;;8.73;;
43670;SDS011;29267;50.906;7.248;2022-08-25T14:09:44;9.18;;;8.13;;
43670;SDS011;29267;50.906;7.248;2022-08-25T14:12:24;9.07;;;8.00;;
43670;SDS011;29267;50.906;7.248;2022-08-25T14:17:41;9.13;;;8.23;;
43670;SDS011;29267;50.906;7.248;2022-08-25T14:20:15;8.02;;;7.22;;
43670;SDS011;29267;50.906;7.248;2022-08-25T14:22:50;8.32;;;7.53;;
43670;SDS011;29267;50.906;7.248;2022-08-25T14:25:19;9.73;;;8.82;;
43670;SDS011;29267;50.906;7.248;2022-08-25T14:27:45;10.85;;;8.02;;
43670;SDS011;29267;50.906;7.248;2022-08-25T14:30:32;7.97;;;7.18;;
43670;SDS011;29267;50.906;7.248;2022-08-25T14:33:00;8.65;;;7.75;;
43670;SDS011;29267;50.906;7.248;2022-08-25T14:35:28;8.63;;;7.82;;
43670;SDS011;29267;50.906;7.248;2022-08-25T14:37:54;9.93;;;8.20;;
43670;SDS011;29267;50.906;7.248;2022-08-25T14:40:20;10.90;;;8.48;;
43670;SDS011;29267;50.906;7.248;2022-08-25T14:42:47;8.73;;;7.82;;
43670;SDS011;29267;50.906;7.248;2022-08-25T14:45:14;11.13;;;8.25;;
43670;SDS011;29267;50.906;7.248;2022-08-25T14:47:41;9.65;;;8.35;;
43670;SDS011;29267;50.906;7.248;2022-08-25T14:50:09;9.40;;;8.48;;
43670;SDS011;29267;50.906;7.248;2022-08-25T14:52:35;8.68;;;7.63;;
43670;SDS011;29267;50.906;7.248;2022-08-25T14:55:01;9.48;;;8.50;;
43670;SDS011;29267;50.906;7.248;2022-08-25T14:57:27;9.75;;;7.82;;
43670;SDS011;29267;50.906;7.248;2022-08-25T14:59:53;8.68;;;7.43;;
43670;SDS011;29267;50.906;7.248;2022-08-25T15:02:19;8.93;;;8.02;;
43670;SDS011;29267;50.906;7.248;2022-08-25T15:04:56;9.60;;;7.90;;
43670;SDS011;29267;50.906;7.248;2022-08-25T15:07:24;8.93;;;8.02;;
43670;SDS011;29267;50.906;7.248;2022-08-25T15:10:10;7.32;;;6.63;;
43670;SDS011;29267;50.906;7.248;2022-08-25T15:12:35;8.75;;;7.32;;
43670;SDS011;29267;50.906;7.248;2022-08-25T15:15:01;8.50;;;7.70;;
43670;SDS011;29267;50.906;7.248;2022-08-25T15:17:28;8.48;;;7.65;;
43670;SDS011;29267;50.906;7.248;2022-08-25T15:19:54;8.80;;;7.78;;
43670;SDS011;29267;50.906;7.248;2022-08-25T15:22:20;8.40;;;7.47;;
43670;SDS011;29267;50.906;7.248;2022-08-25T15:24:45;8.40;;;7.60;;
43670;SDS011;29267;50.906;7.248;2022-08-25T15:27:11;9.43;;;8.50;;
43670;SDS011;29267;50.906;7.248;2022-08-25T15:29:39;9.07;;;8.20;;
43670;SDS011;29267;50.906;7.248;2022-08-25T15:32:05;8.10;;;7.32;;
43670;SDS011;29267;50.906;7.248;2022-08-25T15:34:32;8.52;;;7.72;;
43670;SDS011;29267;50.906;7.248;2022-08-25T15:37:07;8.68;;;7.68;;
43670;SDS011;29267;50.906;7.248;2022-08-25T15:39:35;8.85;;;7.88;;
43670;SDS011;29267;50.906;7.248;2022-08-25T15:42:02;9.45;;;8.45;;
43670;SDS011;29267;50.906;7.248;2022-08-25T15:44:29;7.13;;;6.43;;
43670;SDS011;29267;50.906;7.248;2022-08-25T15:46:56;7.97;;;7.00;;
43670;SDS011;29267;50.906;7.248;2022-08-25T15:49:23;9.88;;;8.20;;
43670;SDS011;29267;50.906;7.248;2022-08-25T15:51:50;7.50;;;6.80;;
43670;SDS011;29267;50.906;7.248;2022-08-25T15:54:17;8.13;;;7.32;;
43670;SDS011;29267;50.906;7.248;2022-08-25T15:56:44;7.38;;;6.68;;
43670;SDS011;29267;50.906;7.248;2022-08-25T15:59:10;9.98;;;6.45;;
43670;SDS011;29267;50.906;7.248;2022-08-25T16:01:37;7.07;;;6.38;;
43670;SDS011;29267;50.906;7.248;2022-08-25T16:04:04;7.30;;;6.55;;
43670;SDS011;29267;50.906;7.248;2022-08-25T16:06:31;7.90;;;7.00;;
43670;SDS011;29267;50.906;7.248;2022-08-25T16:08:56;8.02;;;7.15;;
43670;SDS011;29267;50.906;7.248;2022-08-25T16:11:23;7.35;;;6.65;;
43670;SDS011;29267;50.906;7.248;2022-08-25T16:13:52;7.38;;;6.68;;
43670;SDS011;29267;50.906;7.248;2022-08-25T16:16:19;7.50;;;6.80;;
43670;SDS011;29267;50.906;7.248;2022-08-25T16:18:46;7.47;;;6.78;;
43670;SDS011;29267;50.906;7.248;2022-08-25T16:21:14;7.88;;;7.07;;
43670;SDS011;29267;50.906;7.248;2022-08-25T16:23:55;7.40;;;6.55;;
43670;SDS011;29267;50.906;7.248;2022-08-25T16:26:22;8.82;;;6.85;;
43670;SDS011;29267;50.906;7.248;2022-08-25T16:28:48;7.57;;;6.30;;
43670;SDS011;29267;50.906;7.248;2022-08-25T16:31:14;8.23;;;7.43;;
43670;SDS011;29267;50.906;7.248;2022-08-25T16:33:41;10.25;;;6.93;;
43670;SDS011;29267;50.906;7.248;2022-08-25T16:36:13;9.52;;;8.40;;
43670;SDS011;29267;50.906;7.248;2022-08-25T16:38:44;14.60;;;9.68;;
43670;SDS011;29267;50.906;7.248;2022-08-25T16:41:12;13.63;;;10.60;;
43670;SDS011;29267;50.906;7.248;2022-08-25T16:43:40;10.80;;;9.80;;
43670;SDS011;29267;50.906;7.248;2022-08-25T16:46:08;10.82;;;9.80;;
43670;SDS011;29267;50.906;7.248;2022-08-25T16:48:35;13.57;;;9.93;;
43670;SDS011;29267;50.906;7.248;2022-08-25T16:51:05;14.52;;;10.98;;
43670;SDS011;29267;50.906;7.248;2022-08-25T16:53:44;11.90;;;10.67;;
43670;SDS011;29267;50.906;7.248;2022-08-25T16:56:30;11.43;;;10.23;;
43670;SDS011;29267;50.906;7.248;2022-08-25T16:58:59;11.45;;;10.25;;
43670;SDS011;29267;50.906;7.248;2022-08-25T17:01:26;10.02;;;8.88;;
43670;SDS011;29267;50.906;7.248;2022-08-25T17:03:54;10.15;;;9.15;;
43670;SDS011;29267;50.906;7.248;2022-08-25T17:06:22;10.98;;;9.77;;
43670;SDS011;29267;50.906;7.248;2022-08-25T17:08:49;9.57;;;8.57;;
43670;SDS011;29267;50.906;7.248;2022-08-25T17:11:16;11.75;;;9.88;;
43670;SDS011;29267;50.906;7.248;2022-08-25T17:13:51;10.40;;;9.15;;
43670;SDS011;29267;50.906;7.248;2022-08-25T17:16:19;10.18;;;9.13;;
43670;SDS011;29267;50.906;7.248;2022-08-25T17:18:50;11.52;;;10.40;;
43670;SDS011;29267;50.906;7.248;2022-08-25T17:21:16;11.65;;;10.45;;
43670;SDS011;29267;50.906;7.248;2022-08-25T17:23:43;14.82;;;11.02;;
43670;SDS011;29267;50.906;7.248;2022-08-25T17:26:11;12.45;;;11.15;;
43670;SDS011;29267;50.906;7.248;2022-08-25T17:28:39;13.80;;;10.40;;
43670;SDS011;29267;50.906;7.248;2022-08-25T17:31:05;11.68;;;10.57;;